Weather at Bonney Downs Station Airport

Public forecast

Using degrees Celsius for public forecast. Weather courtesy of forecast.io.

Closest aviation weather report (METAR) to Bonney Downs Station Airport

Closest report is Port Hedland International Airport, 133.4 nm (247.1 km) NNW.

2024/05/21 02:00 (retrieved 17 minutes ago)

YPPD 210200Z AUTO 10020KT 9999 // NCD 26/M08 Q1018 RF000/0000

Closest aviation forecast (TAF) to Bonney Downs Station Airport

Forecast is more than 12 hours old.

Closest forecast is Koumac Airport, 2,473.7 nm (4,581.3 km) E.

2024/05/20 06:00 Ammendment (retrieved 20 hours ago)

TAF AMD NWWD 200500Z 2006/2106 CNL TAF AMD NWWK 200500Z 2006/2106 CNL